To NAV CANADA Home Page Login to a new session Search on AWWS site Feedback and Comments Disclaimer Vers la page française équivalente Tips FAQ What's new on the site To the Forecasts and Observations / NOTAM section To "File a Flight Plan" website Publications and other links Update of the User's profile FIC Telephone Numbers My Weather Data Folder Route Weather Data Regional Weather Data Local Weather Data To the Forecasts and Observations / NOTAM section
Request Generated 08/22/2017 at 01:39:12 UTC . Weather information available at that time is displayed.

METAR/TAF

KINDERSLEY/KINDERSLEY REGIONAL/SK    

METAR CYKY 220100Z 30005KT 14SM FEW060 FEW240 FEW250 21/03 A3011 RMK
CU1CC1CI1 CU TR CC TR SLP204 DENSITY ALT 3400FT=
METAR CYKY 220000Z 30007KT 15SM FEW065 BKN080 BKN220 21/02 A3012 RMK
CU2AC3CI1 SLP207 DENSITY ALT 3400FT=
METAR CYKY 212300Z 30008G19KT 15SM FEW060 SCT065 BKN080 21/02 A3013
RMK SC2CU2AC2 SLP209 DENSITY ALT 3300FT=

CYKY - No TAF is issued for this station

Your time UTC time
Weather data provided by Environment Canada and NAV CANADA